Terminal Aerodrome Forecast
Issued by NWS Oklahoma City, OK

Home | Current Version | Previous Version | Text Only | Print | Product List | Glossary On
Versions: 1 2 3 4 5 6 7 8 9 10 11 12 13 14 15 16 17 18 19
000
FTUS44 KOUN 071743
TAFOUN
TAF
KOUN 071743Z 0718/0818 04007KT P6SM BKN027
      TEMPO 0718/0721 SCT030 BKN045
     FM072100 03012KT P6SM -DZ BKN015
     FM080100 36014G20KT P6SM BKN020
     FM081300 36015KT P6SM BKN200=

USA.gov is the U.S. government's official web portal to all federal, state and local government web resources and services.